sensor_id;sensor_type;location;lat;lon;timestamp;P1;durP1;ratioP1;P2;durP2;ratioP2
58472;SDS011;44775;51.564;5.460;2023-04-03T00:00:59;13.10;;;10.38;;
58472;SDS011;44775;51.564;5.460;2023-04-03T00:03:24;17.15;;;10.85;;
58472;SDS011;44775;51.564;5.460;2023-04-03T00:05:50;17.02;;;11.43;;
58472;SDS011;44775;51.564;5.460;2023-04-03T00:08:15;14.50;;;11.57;;
58472;SDS011;44775;51.564;5.460;2023-04-03T00:10:41;13.32;;;10.98;;
58472;SDS011;44775;51.564;5.460;2023-04-03T00:13:07;16.95;;;11.68;;
58472;SDS011;44775;51.564;5.460;2023-04-03T00:15:33;14.98;;;12.30;;
58472;SDS011;44775;51.564;5.460;2023-04-03T00:18:00;18.60;;;11.40;;
58472;SDS011;44775;51.564;5.460;2023-04-03T00:20:26;16.50;;;12.35;;
58472;SDS011;44775;51.564;5.460;2023-04-03T00:22:52;14.60;;;10.40;;
58472;SDS011;44775;51.564;5.460;2023-04-03T00:25:18;15.32;;;12.48;;
58472;SDS011;44775;51.564;5.460;2023-04-03T00:27:43;18.60;;;13.88;;
58472;SDS011;44775;51.564;5.460;2023-04-03T00:30:09;17.85;;;13.02;;
58472;SDS011;44775;51.564;5.460;2023-04-03T00:35:03;15.70;;;13.27;;
58472;SDS011;44775;51.564;5.460;2023-04-03T00:37:28;17.92;;;13.48;;
58472;SDS011;44775;51.564;5.460;2023-04-03T00:39:54;16.92;;;13.10;;
58472;SDS011;44775;51.564;5.460;2023-04-03T00:42:20;17.17;;;12.82;;
58472;SDS011;44775;51.564;5.460;2023-04-03T00:47:11;20.77;;;13.85;;
58472;SDS011;44775;51.564;5.460;2023-04-03T00:49:40;19.88;;;12.05;;
58472;SDS011;44775;51.564;5.460;2023-04-03T00:52:07;19.75;;;12.82;;
58472;SDS011;44775;51.564;5.460;2023-04-03T00:54:37;17.48;;;12.43;;
58472;SDS011;44775;51.564;5.460;2023-04-03T00:57:05;15.23;;;11.43;;
58472;SDS011;44775;51.564;5.460;2023-04-03T00:59:32;15.93;;;12.85;;
58472;SDS011;44775;51.564;5.460;2023-04-03T01:02:00;16.95;;;12.52;;
58472;SDS011;44775;51.564;5.460;2023-04-03T01:04:29;17.25;;;13.15;;
58472;SDS011;44775;51.564;5.460;2023-04-03T01:06:57;18.70;;;11.93;;
58472;SDS011;44775;51.564;5.460;2023-04-03T01:09:26;17.55;;;11.57;;
58472;SDS011;44775;51.564;5.460;2023-04-03T01:11:53;15.52;;;12.00;;
58472;SDS011;44775;51.564;5.460;2023-04-03T01:14:18;15.50;;;11.98;;
58472;SDS011;44775;51.564;5.460;2023-04-03T01:16:51;17.38;;;12.30;;
58472;SDS011;44775;51.564;5.460;2023-04-03T01:19:18;17.25;;;11.93;;
58472;SDS011;44775;51.564;5.460;2023-04-03T01:21:54;14.27;;;12.10;;
58472;SDS011;44775;51.564;5.460;2023-04-03T01:24:47;15.10;;;11.93;;
58472;SDS011;44775;51.564;5.460;2023-04-03T01:27:12;14.65;;;11.18;;
58472;SDS011;44775;51.564;5.460;2023-04-03T01:29:38;17.65;;;12.65;;
58472;SDS011;44775;51.564;5.460;2023-04-03T01:32:05;16.55;;;11.93;;
58472;SDS011;44775;51.564;5.460;2023-04-03T01:34:30;16.45;;;11.73;;
58472;SDS011;44775;51.564;5.460;2023-04-03T01:36:56;17.38;;;12.48;;
58472;SDS011;44775;51.564;5.460;2023-04-03T01:39:22;17.00;;;10.82;;
58472;SDS011;44775;51.564;5.460;2023-04-03T01:41:48;16.45;;;11.65;;
58472;SDS011;44775;51.564;5.460;2023-04-03T01:44:13;15.65;;;11.85;;
58472;SDS011;44775;51.564;5.460;2023-04-03T01:46:39;13.93;;;11.52;;
58472;SDS011;44775;51.564;5.460;2023-04-03T01:49:06;17.30;;;11.18;;
58472;SDS011;44775;51.564;5.460;2023-04-03T01:51:31;16.33;;;11.80;;
58472;SDS011;44775;51.564;5.460;2023-04-03T01:53:58;16.58;;;11.70;;
58472;SDS011;44775;51.564;5.460;2023-04-03T01:56:23;17.45;;;11.82;;
58472;SDS011;44775;51.564;5.460;2023-04-03T01:58:48;18.05;;;11.77;;
58472;SDS011;44775;51.564;5.460;2023-04-03T02:01:14;15.27;;;11.80;;
58472;SDS011;44775;51.564;5.460;2023-04-03T02:03:40;15.77;;;11.27;;
58472;SDS011;44775;51.564;5.460;2023-04-03T02:06:05;15.57;;;11.02;;
58472;SDS011;44775;51.564;5.460;2023-04-03T02:08:31;13.77;;;10.98;;
58472;SDS011;44775;51.564;5.460;2023-04-03T02:10:56;14.60;;;11.05;;
58472;SDS011;44775;51.564;5.460;2023-04-03T02:13:21;14.13;;;10.52;;
58472;SDS011;44775;51.564;5.460;2023-04-03T02:15:47;13.48;;;10.50;;
58472;SDS011;44775;51.564;5.460;2023-04-03T02:18:12;13.55;;;10.38;;
58472;SDS011;44775;51.564;5.460;2023-04-03T02:20:38;15.25;;;10.48;;
58472;SDS011;44775;51.564;5.460;2023-04-03T02:23:04;14.07;;;10.50;;
58472;SDS011;44775;51.564;5.460;2023-04-03T02:25:31;15.55;;;10.65;;
58472;SDS011;44775;51.564;5.460;2023-04-03T02:27:56;13.05;;;10.18;;
58472;SDS011;44775;51.564;5.460;2023-04-03T02:30:22;12.32;;;9.65;;
58472;SDS011;44775;51.564;5.460;2023-04-03T02:32:47;12.55;;;10.02;;
58472;SDS011;44775;51.564;5.460;2023-04-03T02:35:12;12.38;;;9.40;;
58472;SDS011;44775;51.564;5.460;2023-04-03T02:37:38;12.85;;;9.15;;
58472;SDS011;44775;51.564;5.460;2023-04-03T02:40:04;15.07;;;8.68;;
58472;SDS011;44775;51.564;5.460;2023-04-03T02:42:30;13.88;;;9.77;;
58472;SDS011;44775;51.564;5.460;2023-04-03T02:44:56;11.88;;;8.82;;
58472;SDS011;44775;51.564;5.460;2023-04-03T02:47:21;14.65;;;9.15;;
58472;SDS011;44775;51.564;5.460;2023-04-03T02:49:46;10.73;;;8.70;;
58472;SDS011;44775;51.564;5.460;2023-04-03T02:52:12;11.07;;;8.60;;
58472;SDS011;44775;51.564;5.460;2023-04-03T02:54:38;11.20;;;8.02;;
58472;SDS011;44775;51.564;5.460;2023-04-03T02:57:03;8.73;;;7.43;;
58472;SDS011;44775;51.564;5.460;2023-04-03T02:59:29;12.88;;;8.68;;
58472;SDS011;44775;51.564;5.460;2023-04-03T03:01:54;13.73;;;7.50;;
58472;SDS011;44775;51.564;5.460;2023-04-03T03:04:20;9.25;;;6.90;;
58472;SDS011;44775;51.564;5.460;2023-04-03T03:06:46;11.10;;;7.10;;
58472;SDS011;44775;51.564;5.460;2023-04-03T03:09:11;8.55;;;7.28;;
58472;SDS011;44775;51.564;5.460;2023-04-03T03:11:38;9.52;;;6.80;;
58472;SDS011;44775;51.564;5.460;2023-04-03T03:14:03;9.13;;;6.90;;
58472;SDS011;44775;51.564;5.460;2023-04-03T03:16:29;12.07;;;7.07;;
58472;SDS011;44775;51.564;5.460;2023-04-03T03:18:54;8.18;;;6.50;;
58472;SDS011;44775;51.564;5.460;2023-04-03T03:21:20;10.02;;;6.28;;
58472;SDS011;44775;51.564;5.460;2023-04-03T03:23:45;8.95;;;6.70;;
58472;SDS011;44775;51.564;5.460;2023-04-03T03:26:11;7.57;;;6.20;;
58472;SDS011;44775;51.564;5.460;2023-04-03T03:28:36;7.88;;;6.07;;
58472;SDS011;44775;51.564;5.460;2023-04-03T03:31:03;10.95;;;6.55;;
58472;SDS011;44775;51.564;5.460;2023-04-03T03:33:29;7.47;;;5.80;;
58472;SDS011;44775;51.564;5.460;2023-04-03T03:35:55;9.88;;;5.85;;
58472;SDS011;44775;51.564;5.460;2023-04-03T03:38:21;7.68;;;6.38;;
58472;SDS011;44775;51.564;5.460;2023-04-03T03:40:47;6.97;;;5.20;;
58472;SDS011;44775;51.564;5.460;2023-04-03T03:43:13;8.25;;;5.78;;
58472;SDS011;44775;51.564;5.460;2023-04-03T03:45:39;9.00;;;5.32;;
58472;SDS011;44775;51.564;5.460;2023-04-03T03:48:04;9.30;;;6.13;;
58472;SDS011;44775;51.564;5.460;2023-04-03T03:50:30;8.40;;;5.53;;
58472;SDS011;44775;51.564;5.460;2023-04-03T03:52:55;6.60;;;5.53;;
58472;SDS011;44775;51.564;5.460;2023-04-03T03:55:21;7.95;;;5.35;;
58472;SDS011;44775;51.564;5.460;2023-04-03T03:57:46;7.70;;;5.68;;
58472;SDS011;44775;51.564;5.460;2023-04-03T04:00:12;7.25;;;5.07;;
58472;SDS011;44775;51.564;5.460;2023-04-03T04:02:37;11.13;;;5.43;;
58472;SDS011;44775;51.564;5.460;2023-04-03T04:05:03;8.55;;;5.18;;
58472;SDS011;44775;51.564;5.460;2023-04-03T04:07:28;7.47;;;5.20;;
58472;SDS011;44775;51.564;5.460;2023-04-03T04:09:54;7.55;;;5.20;;
58472;SDS011;44775;51.564;5.460;2023-04-03T04:12:19;7.35;;;5.20;;
58472;SDS011;44775;51.564;5.460;2023-04-03T04:14:45;7.18;;;5.18;;
58472;SDS011;44775;51.564;5.460;2023-04-03T04:17:14;9.23;;;5.15;;
58472;SDS011;44775;51.564;5.460;2023-04-03T04:19:39;8.65;;;5.60;;
58472;SDS011;44775;51.564;5.460;2023-04-03T04:22:05;8.30;;;5.30;;
58472;SDS011;44775;51.564;5.460;2023-04-03T04:24:30;9.15;;;4.82;;
58472;SDS011;44775;51.564;5.460;2023-04-03T04:26:55;7.80;;;5.10;;
58472;SDS011;44775;51.564;5.460;2023-04-03T04:29:21;7.65;;;5.10;;
58472;SDS011;44775;51.564;5.460;2023-04-03T04:31:46;6.85;;;4.80;;
58472;SDS011;44775;51.564;5.460;2023-04-03T04:34:11;6.82;;;4.95;;
58472;SDS011;44775;51.564;5.460;2023-04-03T04:36:38;8.48;;;4.40;;
58472;SDS011;44775;51.564;5.460;2023-04-03T04:39:03;6.88;;;4.40;;
58472;SDS011;44775;51.564;5.460;2023-04-03T04:41:29;8.68;;;4.22;;
58472;SDS011;44775;51.564;5.460;2023-04-03T04:43:54;7.40;;;4.40;;
58472;SDS011;44775;51.564;5.460;2023-04-03T04:46:19;8.07;;;4.50;;
58472;SDS011;44775;51.564;5.460;2023-04-03T04:48:45;7.80;;;4.78;;
58472;SDS011;44775;51.564;5.460;2023-04-03T04:51:10;6.90;;;4.57;;
58472;SDS011;44775;51.564;5.460;2023-04-03T04:53:36;7.47;;;4.40;;
58472;SDS011;44775;51.564;5.460;2023-04-03T04:56:01;7.47;;;4.72;;
58472;SDS011;44775;51.564;5.460;2023-04-03T04:58:27;7.50;;;4.53;;
58472;SDS011;44775;51.564;5.460;2023-04-03T05:00:59;7.70;;;4.78;;
58472;SDS011;44775;51.564;5.460;2023-04-03T05:03:25;8.63;;;4.38;;
58472;SDS011;44775;51.564;5.460;2023-04-03T05:05:50;9.48;;;4.60;;
58472;SDS011;44775;51.564;5.460;2023-04-03T05:08:15;8.38;;;4.45;;
58472;SDS011;44775;51.564;5.460;2023-04-03T05:10:41;7.80;;;4.53;;
58472;SDS011;44775;51.564;5.460;2023-04-03T05:13:07;7.57;;;4.75;;
58472;SDS011;44775;51.564;5.460;2023-04-03T05:15:32;7.18;;;4.40;;
58472;SDS011;44775;51.564;5.460;2023-04-03T05:17:57;7.30;;;4.10;;
58472;SDS011;44775;51.564;5.460;2023-04-03T05:20:23;6.32;;;4.00;;
58472;SDS011;44775;51.564;5.460;2023-04-03T05:22:48;7.78;;;4.15;;
58472;SDS011;44775;51.564;5.460;2023-04-03T05:25:13;6.15;;;4.30;;
58472;SDS011;44775;51.564;5.460;2023-04-03T05:27:38;7.50;;;4.38;;
58472;SDS011;44775;51.564;5.460;2023-04-03T05:30:04;6.00;;;3.88;;
58472;SDS011;44775;51.564;5.460;2023-04-03T05:32:30;6.85;;;4.10;;
58472;SDS011;44775;51.564;5.460;2023-04-03T05:34:55;5.50;;;3.90;;
58472;SDS011;44775;51.564;5.460;2023-04-03T05:37:20;5.85;;;4.15;;
58472;SDS011;44775;51.564;5.460;2023-04-03T05:39:45;8.65;;;3.63;;
58472;SDS011;44775;51.564;5.460;2023-04-03T05:42:11;6.80;;;4.10;;
58472;SDS011;44775;51.564;5.460;2023-04-03T05:44:37;7.13;;;4.07;;
58472;SDS011;44775;51.564;5.460;2023-04-03T05:47:03;6.70;;;4.20;;
58472;SDS011;44775;51.564;5.460;2023-04-03T05:49:29;9.23;;;4.40;;
58472;SDS011;44775;51.564;5.460;2023-04-03T05:51:54;7.38;;;4.05;;
58472;SDS011;44775;51.564;5.460;2023-04-03T05:54:27;8.05;;;4.15;;
58472;SDS011;44775;51.564;5.460;2023-04-03T05:56:54;8.05;;;4.20;;
58472;SDS011;44775;51.564;5.460;2023-04-03T05:59:20;8.40;;;4.28;;
58472;SDS011;44775;51.564;5.460;2023-04-03T06:01:46;8.55;;;4.43;;
58472;SDS011;44775;51.564;5.460;2023-04-03T06:04:12;6.38;;;3.80;;
58472;SDS011;44775;51.564;5.460;2023-04-03T06:06:45;8.10;;;4.20;;
58472;SDS011;44775;51.564;5.460;2023-04-03T06:09:18;9.70;;;4.57;;
58472;SDS011;44775;51.564;5.460;2023-04-03T06:11:45;6.30;;;3.83;;
58472;SDS011;44775;51.564;5.460;2023-04-03T06:14:11;4.22;;;2.83;;
58472;SDS011;44775;51.564;5.460;2023-04-03T06:16:37;5.18;;;3.58;;
58472;SDS011;44775;51.564;5.460;2023-04-03T06:19:04;6.25;;;3.75;;
58472;SDS011;44775;51.564;5.460;2023-04-03T06:21:29;6.95;;;3.90;;
58472;SDS011;44775;51.564;5.460;2023-04-03T06:23:55;10.43;;;3.67;;
58472;SDS011;44775;51.564;5.460;2023-04-03T06:26:20;6.20;;;4.00;;
58472;SDS011;44775;51.564;5.460;2023-04-03T06:28:46;8.90;;;4.18;;
58472;SDS011;44775;51.564;5.460;2023-04-03T06:31:11;6.88;;;3.92;;
58472;SDS011;44775;51.564;5.460;2023-04-03T06:33:36;5.72;;;3.40;;
58472;SDS011;44775;51.564;5.460;2023-04-03T06:36:04;8.30;;;3.88;;
58472;SDS011;44775;51.564;5.460;2023-04-03T06:38:30;7.37;;;3.77;;
58472;SDS011;44775;51.564;5.460;2023-04-03T06:40:55;6.15;;;3.92;;
58472;SDS011;44775;51.564;5.460;2023-04-03T06:43:21;6.93;;;3.97;;
58472;SDS011;44775;51.564;5.460;2023-04-03T06:45:47;5.38;;;3.50;;
58472;SDS011;44775;51.564;5.460;2023-04-03T06:48:12;7.78;;;3.83;;
58472;SDS011;44775;51.564;5.460;2023-04-03T06:50:38;5.63;;;3.53;;
58472;SDS011;44775;51.564;5.460;2023-04-03T06:53:04;7.75;;;3.55;;
58472;SDS011;44775;51.564;5.460;2023-04-03T06:55:29;5.72;;;3.60;;
58472;SDS011;44775;51.564;5.460;2023-04-03T06:57:55;7.05;;;3.58;;
58472;SDS011;44775;51.564;5.460;2023-04-03T07:00:21;5.15;;;3.42;;
58472;SDS011;44775;51.564;5.460;2023-04-03T07:02:46;7.60;;;3.20;;
58472;SDS011;44775;51.564;5.460;2023-04-03T07:05:12;5.93;;;3.50;;
58472;SDS011;44775;51.564;5.460;2023-04-03T07:07:38;5.47;;;2.95;;
58472;SDS011;44775;51.564;5.460;2023-04-03T07:10:04;7.40;;;3.42;;
58472;SDS011;44775;51.564;5.460;2023-04-03T07:12:31;6.20;;;2.90;;
58472;SDS011;44775;51.564;5.460;2023-04-03T07:14:56;6.53;;;3.28;;
58472;SDS011;44775;51.564;5.460;2023-04-03T07:17:22;4.75;;;3.20;;
58472;SDS011;44775;51.564;5.460;2023-04-03T07:19:47;5.53;;;2.90;;
58472;SDS011;44775;51.564;5.460;2023-04-03T07:22:12;6.95;;;3.17;;
58472;SDS011;44775;51.564;5.460;2023-04-03T07:24:38;5.00;;;3.10;;
58472;SDS011;44775;51.564;5.460;2023-04-03T07:27:03;5.05;;;3.03;;
58472;SDS011;44775;51.564;5.460;2023-04-03T07:29:29;6.68;;;3.10;;
58472;SDS011;44775;51.564;5.460;2023-04-03T07:31:55;8.68;;;3.08;;
58472;SDS011;44775;51.564;5.460;2023-04-03T07:34:20;5.25;;;2.70;;
58472;SDS011;44775;51.564;5.460;2023-04-03T07:36:46;3.72;;;2.40;;
58472;SDS011;44775;51.564;5.460;2023-04-03T07:39:12;6.43;;;3.00;;
58472;SDS011;44775;51.564;5.460;2023-04-03T07:41:37;5.90;;;3.00;;
58472;SDS011;44775;51.564;5.460;2023-04-03T07:44:03;4.93;;;3.25;;
58472;SDS011;44775;51.564;5.460;2023-04-03T07:46:29;7.85;;;2.95;;
58472;SDS011;44775;51.564;5.460;2023-04-03T07:48:55;6.40;;;3.10;;
58472;SDS011;44775;51.564;5.460;2023-04-03T07:51:20;7.15;;;3.45;;
58472;SDS011;44775;51.564;5.460;2023-04-03T07:53:45;5.20;;;3.10;;
58472;SDS011;44775;51.564;5.460;2023-04-03T07:56:11;7.68;;;3.40;;
58472;SDS011;44775;51.564;5.460;2023-04-03T07:58:36;4.78;;;2.80;;
58472;SDS011;44775;51.564;5.460;2023-04-03T08:01:02;5.72;;;2.72;;
58472;SDS011;44775;51.564;5.460;2023-04-03T08:03:28;6.97;;;3.05;;
58472;SDS011;44775;51.564;5.460;2023-04-03T08:05:53;4.28;;;2.67;;
58472;SDS011;44775;51.564;5.460;2023-04-03T08:08:20;6.10;;;2.80;;
58472;SDS011;44775;51.564;5.460;2023-04-03T08:10:53;7.07;;;2.65;;
58472;SDS011;44775;51.564;5.460;2023-04-03T08:13:19;5.72;;;2.45;;
58472;SDS011;44775;51.564;5.460;2023-04-03T08:15:45;5.40;;;2.60;;
58472;SDS011;44775;51.564;5.460;2023-04-03T08:18:11;5.20;;;2.90;;
58472;SDS011;44775;51.564;5.460;2023-04-03T08:20:37;4.97;;;2.78;;
58472;SDS011;44775;51.564;5.460;2023-04-03T08:23:03;6.15;;;2.50;;
58472;SDS011;44775;51.564;5.460;2023-04-03T08:25:28;4.68;;;2.50;;
58472;SDS011;44775;51.564;5.460;2023-04-03T08:27:54;6.65;;;2.72;;
58472;SDS011;44775;51.564;5.460;2023-04-03T08:30:20;6.43;;;2.40;;
58472;SDS011;44775;51.564;5.460;2023-04-03T08:32:45;6.03;;;2.60;;
58472;SDS011;44775;51.564;5.460;2023-04-03T08:35:11;5.95;;;2.67;;
58472;SDS011;44775;51.564;5.460;2023-04-03T08:37:36;5.75;;;2.40;;
58472;SDS011;44775;51.564;5.460;2023-04-03T08:40:03;4.05;;;2.20;;
58472;SDS011;44775;51.564;5.460;2023-04-03T08:45:13;4.15;;;2.35;;
58472;SDS011;44775;51.564;5.460;2023-04-03T08:47:43;7.07;;;2.80;;
58472;SDS011;44775;51.564;5.460;2023-04-03T08:50:16;5.70;;;2.30;;
58472;SDS011;44775;51.564;5.460;2023-04-03T08:52:48;5.45;;;2.20;;
58472;SDS011;44775;51.564;5.460;2023-04-03T08:57:57;4.30;;;2.33;;
58472;SDS011;44775;51.564;5.460;2023-04-03T09:00:32;2.90;;;2.00;;
58472;SDS011;44775;51.564;5.460;2023-04-03T09:03:12;5.55;;;2.28;;
58472;SDS011;44775;51.564;5.460;2023-04-03T09:05:50;3.35;;;1.98;;
58472;SDS011;44775;51.564;5.460;2023-04-03T09:08:33;3.78;;;2.25;;
58472;SDS011;44775;51.564;5.460;2023-04-03T09:14:02;3.65;;;1.90;;
58472;SDS011;44775;51.564;5.460;2023-04-03T09:19:36;2.55;;;1.70;;
58472;SDS011;44775;51.564;5.460;2023-04-03T09:24:54;4.70;;;1.80;;
58472;SDS011;44775;51.564;5.460;2023-04-03T09:27:24;4.43;;;1.50;;
58472;SDS011;44775;51.564;5.460;2023-04-03T09:29:49;3.03;;;1.48;;
58472;SDS011;44775;51.564;5.460;2023-04-03T09:34:57;5.15;;;2.03;;
58472;SDS011;44775;51.564;5.460;2023-04-03T09:37:44;4.15;;;1.60;;
58472;SDS011;44775;51.564;5.460;2023-04-03T09:42:53;3.67;;;1.27;;
58472;SDS011;44775;51.564;5.460;2023-04-03T09:45:24;5.38;;;1.40;;
58472;SDS011;44775;51.564;5.460;2023-04-03T09:50:37;2.15;;;1.38;;
58472;SDS011;44775;51.564;5.460;2023-04-03T09:53:24;1.70;;;1.15;;
58472;SDS011;44775;51.564;5.460;2023-04-03T09:55:52;2.15;;;1.38;;
58472;SDS011;44775;51.564;5.460;2023-04-03T09:58:25;2.55;;;1.40;;
58472;SDS011;44775;51.564;5.460;2023-04-03T10:00:57;1.77;;;1.20;;
58472;SDS011;44775;51.564;5.460;2023-04-03T10:03:25;4.25;;;1.45;;
58472;SDS011;44775;51.564;5.460;2023-04-03T10:05:54;2.50;;;1.30;;
58472;SDS011;44775;51.564;5.460;2023-04-03T10:10:49;2.17;;;1.30;;
58472;SDS011;44775;51.564;5.460;2023-04-03T10:13:33;2.85;;;1.20;;
58472;SDS011;44775;51.564;5.460;2023-04-03T10:16:12;1.80;;;1.10;;
58472;SDS011;44775;51.564;5.460;2023-04-03T10:18:42;3.25;;;1.50;;
58472;SDS011;44775;51.564;5.460;2023-04-03T10:21:15;1.75;;;1.23;;
58472;SDS011;44775;51.564;5.460;2023-04-03T10:23:56;7.68;;;1.50;;
58472;SDS011;44775;51.564;5.460;2023-04-03T10:31:48;1.95;;;1.40;;
58472;SDS011;44775;51.564;5.460;2023-04-03T10:34:33;1.70;;;1.20;;
58472;SDS011;44775;51.564;5.460;2023-04-03T10:37:22;2.78;;;1.13;;
58472;SDS011;44775;51.564;5.460;2023-04-03T10:39:59;1.20;;;0.90;;
58472;SDS011;44775;51.564;5.460;2023-04-03T10:42:35;2.45;;;1.10;;
58472;SDS011;44775;51.564;5.460;2023-04-03T10:50:49;1.73;;;1.00;;
58472;SDS011;44775;51.564;5.460;2023-04-03T10:53:37;1.60;;;1.00;;
58472;SDS011;44775;51.564;5.460;2023-04-03T10:58:44;2.08;;;1.05;;
58472;SDS011;44775;51.564;5.460;2023-04-03T11:01:18;2.22;;;1.10;;
58472;SDS011;44775;51.564;5.460;2023-04-03T11:03:53;2.60;;;1.17;;
58472;SDS011;44775;51.564;5.460;2023-04-03T11:06:22;1.95;;;1.05;;
58472;SDS011;44775;51.564;5.460;2023-04-03T11:08:53;1.30;;;0.98;;
58472;SDS011;44775;51.564;5.460;2023-04-03T11:11:27;2.95;;;1.20;;
58472;SDS011;44775;51.564;5.460;2023-04-03T11:14:01;2.45;;;1.10;;
58472;SDS011;44775;51.564;5.460;2023-04-03T11:16:31;2.28;;;1.20;;
58472;SDS011;44775;51.564;5.460;2023-04-03T11:21:34;3.88;;;1.40;;
58472;SDS011;44775;51.564;5.460;2023-04-03T11:24:12;2.30;;;1.23;;
58472;SDS011;44775;51.564;5.460;2023-04-03T11:26:45;1.42;;;1.05;;
58472;SDS011;44775;51.564;5.460;2023-04-03T11:29:15;4.18;;;1.52;;
58472;SDS011;44775;51.564;5.460;2023-04-03T11:34:42;2.97;;;1.08;;
58472;SDS011;44775;51.564;5.460;2023-04-03T11:37:23;1.85;;;1.10;;
58472;SDS011;44775;51.564;5.460;2023-04-03T11:40:00;2.15;;;1.10;;
58472;SDS011;44775;51.564;5.460;2023-04-03T11:42:32;3.72;;;1.08;;
58472;SDS011;44775;51.564;5.460;2023-04-03T11:51:01;2.45;;;1.02;;
58472;SDS011;44775;51.564;5.460;2023-04-03T11:53:35;2.95;;;1.23;;
58472;SDS011;44775;51.564;5.460;2023-04-03T12:04:21;3.05;;;1.05;;
58472;SDS011;44775;51.564;5.460;2023-04-03T12:06:50;2.50;;;1.10;;
58472;SDS011;44775;51.564;5.460;2023-04-03T12:09:30;3.15;;;1.00;;
58472;SDS011;44775;51.564;5.460;2023-04-03T12:11:59;1.90;;;1.30;;
58472;SDS011;44775;51.564;5.460;2023-04-03T12:14:27;2.03;;;1.10;;
58472;SDS011;44775;51.564;5.460;2023-04-03T12:16:54;2.08;;;1.10;;
58472;SDS011;44775;51.564;5.460;2023-04-03T12:22:17;4.80;;;1.55;;
58472;SDS011;44775;51.564;5.460;2023-04-03T12:24:46;2.10;;;0.90;;
58472;SDS011;44775;51.564;5.460;2023-04-03T12:41:10;6.60;;;1.52;;
58472;SDS011;44775;51.564;5.460;2023-04-03T12:46:21;2.65;;;1.30;;
58472;SDS011;44775;51.564;5.460;2023-04-03T12:48:55;2.65;;;1.02;;
58472;SDS011;44775;51.564;5.460;2023-04-03T12:51:43;2.42;;;1.40;;
58472;SDS011;44775;51.564;5.460;2023-04-03T12:54:30;2.33;;;1.27;;
58472;SDS011;44775;51.564;5.460;2023-04-03T12:59:40;3.47;;;1.50;;
58472;SDS011;44775;51.564;5.460;2023-04-03T13:02:20;3.28;;;1.20;;
58472;SDS011;44775;51.564;5.460;2023-04-03T13:04:58;2.63;;;1.60;;
58472;SDS011;44775;51.564;5.460;2023-04-03T13:07:31;3.53;;;1.70;;
58472;SDS011;44775;51.564;5.460;2023-04-03T13:10:01;2.15;;;1.33;;
58472;SDS011;44775;51.564;5.460;2023-04-03T13:12:29;3.75;;;1.13;;
58472;SDS011;44775;51.564;5.460;2023-04-03T13:14:59;4.32;;;1.40;;
58472;SDS011;44775;51.564;5.460;2023-04-03T13:17:29;2.38;;;1.50;;
58472;SDS011;44775;51.564;5.460;2023-04-03T13:19:54;3.25;;;1.30;;
58472;SDS011;44775;51.564;5.460;2023-04-03T13:22:25;2.90;;;1.67;;
58472;SDS011;44775;51.564;5.460;2023-04-03T13:24:56;2.65;;;1.40;;
58472;SDS011;44775;51.564;5.460;2023-04-03T13:27:24;2.05;;;1.30;;
58472;SDS011;44775;51.564;5.460;2023-04-03T13:29:51;3.95;;;1.52;;
58472;SDS011;44775;51.564;5.460;2023-04-03T13:32:20;3.05;;;1.55;;
58472;SDS011;44775;51.564;5.460;2023-04-03T13:34:47;2.83;;;1.30;;
58472;SDS011;44775;51.564;5.460;2023-04-03T13:37:23;3.00;;;1.35;;
58472;SDS011;44775;51.564;5.460;2023-04-03T13:40:04;2.90;;;1.30;;
58472;SDS011;44775;51.564;5.460;2023-04-03T13:42:37;3.22;;;1.60;;
58472;SDS011;44775;51.564;5.460;2023-04-03T13:45:18;2.58;;;1.50;;
58472;SDS011;44775;51.564;5.460;2023-04-03T13:47:46;4.10;;;1.52;;
58472;SDS011;44775;51.564;5.460;2023-04-03T13:52:41;3.85;;;1.20;;
58472;SDS011;44775;51.564;5.460;2023-04-03T13:55:17;1.65;;;1.02;;
58472;SDS011;44775;51.564;5.460;2023-04-03T13:58:00;2.90;;;1.13;;
58472;SDS011;44775;51.564;5.460;2023-04-03T14:00:39;3.47;;;1.50;;
58472;SDS011;44775;51.564;5.460;2023-04-03T14:03:23;2.85;;;1.50;;
58472;SDS011;44775;51.564;5.460;2023-04-03T14:06:05;3.55;;;1.50;;
58472;SDS011;44775;51.564;5.460;2023-04-03T14:08:31;3.40;;;1.30;;
58472;SDS011;44775;51.564;5.460;2023-04-03T14:10:57;2.95;;;1.30;;
58472;SDS011;44775;51.564;5.460;2023-04-03T14:13:23;3.78;;;1.52;;
58472;SDS011;44775;51.564;5.460;2023-04-03T14:15:48;4.80;;;1.67;;
58472;SDS011;44775;51.564;5.460;2023-04-03T14:18:18;3.65;;;1.67;;
58472;SDS011;44775;51.564;5.460;2023-04-03T14:20:44;2.50;;;1.23;;
58472;SDS011;44775;51.564;5.460;2023-04-03T14:23:10;3.20;;;1.55;;
58472;SDS011;44775;51.564;5.460;2023-04-03T14:25:36;3.80;;;1.80;;
58472;SDS011;44775;51.564;5.460;2023-04-03T14:28:06;3.03;;;1.40;;
58472;SDS011;44775;51.564;5.460;2023-04-03T14:30:39;2.97;;;1.20;;
58472;SDS011;44775;51.564;5.460;2023-04-03T14:33:05;2.47;;;1.30;;
58472;SDS011;44775;51.564;5.460;2023-04-03T14:35:31;2.38;;;1.23;;
58472;SDS011;44775;51.564;5.460;2023-04-03T14:37:56;1.98;;;1.48;;
58472;SDS011;44775;51.564;5.460;2023-04-03T14:40:23;2.97;;;1.50;;
58472;SDS011;44775;51.564;5.460;2023-04-03T14:42:51;3.50;;;1.60;;
58472;SDS011;44775;51.564;5.460;2023-04-03T14:47:46;2.40;;;1.30;;
58472;SDS011;44775;51.564;5.460;2023-04-03T14:50:16;3.90;;;1.30;;
58472;SDS011;44775;51.564;5.460;2023-04-03T14:52:50;3.25;;;1.70;;
58472;SDS011;44775;51.564;5.460;2023-04-03T14:57:44;2.38;;;1.75;;
58472;SDS011;44775;51.564;5.460;2023-04-03T15:00:12;5.63;;;1.60;;
58472;SDS011;44775;51.564;5.460;2023-04-03T15:02:38;2.63;;;1.37;;
58472;SDS011;44775;51.564;5.460;2023-04-03T15:05:05;3.83;;;1.50;;
58472;SDS011;44775;51.564;5.460;2023-04-03T15:07:34;2.47;;;1.48;;
58472;SDS011;44775;51.564;5.460;2023-04-03T15:10:02;2.85;;;1.83;;
58472;SDS011;44775;51.564;5.460;2023-04-03T15:12:38;3.80;;;1.30;;
58472;SDS011;44775;51.564;5.460;2023-04-03T15:15:03;2.17;;;1.42;;
58472;SDS011;44775;51.564;5.460;2023-04-03T15:17:29;2.78;;;1.70;;
58472;SDS011;44775;51.564;5.460;2023-04-03T15:19:54;2.92;;;1.80;;
58472;SDS011;44775;51.564;5.460;2023-04-03T15:22:20;2.35;;;1.38;;
58472;SDS011;44775;51.564;5.460;2023-04-03T15:24:46;5.03;;;2.08;;
58472;SDS011;44775;51.564;5.460;2023-04-03T15:27:11;2.03;;;1.25;;
58472;SDS011;44775;51.564;5.460;2023-04-03T15:29:38;1.58;;;1.13;;
58472;SDS011;44775;51.564;5.460;2023-04-03T15:32:05;2.65;;;1.45;;
58472;SDS011;44775;51.564;5.460;2023-04-03T15:34:31;2.33;;;1.50;;
58472;SDS011;44775;51.564;5.460;2023-04-03T15:36:57;3.88;;;1.63;;
58472;SDS011;44775;51.564;5.460;2023-04-03T15:39:23;1.77;;;1.20;;
58472;SDS011;44775;51.564;5.460;2023-04-03T15:41:49;4.03;;;1.40;;
58472;SDS011;44775;51.564;5.460;2023-04-03T15:44:16;4.97;;;1.45;;
58472;SDS011;44775;51.564;5.460;2023-04-03T15:46:42;4.55;;;2.40;;
58472;SDS011;44775;51.564;5.460;2023-04-03T15:49:09;2.08;;;1.50;;
58472;SDS011;44775;51.564;5.460;2023-04-03T15:51:35;2.90;;;1.42;;
58472;SDS011;44775;51.564;5.460;2023-04-03T15:54:01;4.35;;;1.80;;
58472;SDS011;44775;51.564;5.460;2023-04-03T15:56:26;3.92;;;1.67;;
58472;SDS011;44775;51.564;5.460;2023-04-03T15:58:51;2.42;;;1.25;;
58472;SDS011;44775;51.564;5.460;2023-04-03T16:01:17;3.38;;;1.40;;
58472;SDS011;44775;51.564;5.460;2023-04-03T16:03:42;3.08;;;1.63;;
58472;SDS011;44775;51.564;5.460;2023-04-03T16:06:10;2.60;;;1.40;;
58472;SDS011;44775;51.564;5.460;2023-04-03T16:08:37;3.40;;;1.80;;
58472;SDS011;44775;51.564;5.460;2023-04-03T16:11:03;4.25;;;1.92;;
58472;SDS011;44775;51.564;5.460;2023-04-03T16:13:28;3.03;;;1.70;;
58472;SDS011;44775;51.564;5.460;2023-04-03T16:15:54;2.88;;;1.55;;
58472;SDS011;44775;51.564;5.460;2023-04-03T16:18:19;3.42;;;1.70;;
58472;SDS011;44775;51.564;5.460;2023-04-03T16:20:45;5.55;;;2.00;;